sensor_id;sensor_type;location;lat;lon;timestamp;P1;durP1;ratioP1;P2;durP2;ratioP2
12745;SDS011;6437;53.686;10.030;2023-03-11T00:01:43;10.38;;;4.20;;
12745;SDS011;6437;53.686;10.030;2023-03-11T00:03:44;11.60;;;5.28;;
12745;SDS011;6437;53.686;10.030;2023-03-11T00:05:46;8.00;;;4.07;;
12745;SDS011;6437;53.686;10.030;2023-03-11T00:07:48;9.95;;;4.30;;
12745;SDS011;6437;53.686;10.030;2023-03-11T00:09:50;12.05;;;5.70;;
12745;SDS011;6437;53.686;10.030;2023-03-11T00:11:52;10.73;;;5.43;;
12745;SDS011;6437;53.686;10.030;2023-03-11T00:13:53;14.25;;;6.25;;
12745;SDS011;6437;53.686;10.030;2023-03-11T00:15:57;9.18;;;5.13;;
12745;SDS011;6437;53.686;10.030;2023-03-11T00:18:00;13.52;;;6.68;;
12745;SDS011;6437;53.686;10.030;2023-03-11T00:22:04;8.40;;;4.43;;
12745;SDS011;6437;53.686;10.030;2023-03-11T00:24:06;15.52;;;6.53;;
12745;SDS011;6437;53.686;10.030;2023-03-11T00:26:08;10.88;;;5.78;;
12745;SDS011;6437;53.686;10.030;2023-03-11T00:28:10;12.95;;;7.13;;
12745;SDS011;6437;53.686;10.030;2023-03-11T00:30:13;13.63;;;8.27;;
12745;SDS011;6437;53.686;10.030;2023-03-11T00:32:16;10.88;;;6.97;;
12745;SDS011;6437;53.686;10.030;2023-03-11T00:34:18;18.63;;;6.43;;
12745;SDS011;6437;53.686;10.030;2023-03-11T00:36:21;10.75;;;7.30;;
12745;SDS011;6437;53.686;10.030;2023-03-11T00:38:24;12.55;;;7.10;;
12745;SDS011;6437;53.686;10.030;2023-03-11T00:40:28;10.85;;;7.07;;
12745;SDS011;6437;53.686;10.030;2023-03-11T00:42:31;10.27;;;6.55;;
12745;SDS011;6437;53.686;10.030;2023-03-11T00:44:33;13.82;;;7.20;;
12745;SDS011;6437;53.686;10.030;2023-03-11T00:46:35;12.35;;;5.90;;
12745;SDS011;6437;53.686;10.030;2023-03-11T00:48:38;16.10;;;7.82;;
12745;SDS011;6437;53.686;10.030;2023-03-11T00:50:40;11.63;;;7.20;;
12745;SDS011;6437;53.686;10.030;2023-03-11T00:52:42;13.80;;;6.88;;
12745;SDS011;6437;53.686;10.030;2023-03-11T00:54:45;10.73;;;7.40;;
12745;SDS011;6437;53.686;10.030;2023-03-11T00:56:46;10.80;;;7.25;;
12745;SDS011;6437;53.686;10.030;2023-03-11T00:58:48;16.50;;;7.50;;
12745;SDS011;6437;53.686;10.030;2023-03-11T01:00:50;13.65;;;7.25;;
12745;SDS011;6437;53.686;10.030;2023-03-11T01:02:52;12.30;;;7.13;;
12745;SDS011;6437;53.686;10.030;2023-03-11T01:04:56;18.52;;;8.15;;
12745;SDS011;6437;53.686;10.030;2023-03-11T01:06:58;10.45;;;7.32;;
12745;SDS011;6437;53.686;10.030;2023-03-11T01:09:00;18.23;;;8.20;;
12745;SDS011;6437;53.686;10.030;2023-03-11T01:11:02;14.05;;;7.28;;
12745;SDS011;6437;53.686;10.030;2023-03-11T01:13:04;13.25;;;7.97;;
12745;SDS011;6437;53.686;10.030;2023-03-11T01:15:06;12.77;;;7.82;;
12745;SDS011;6437;53.686;10.030;2023-03-11T01:17:09;13.23;;;7.65;;
12745;SDS011;6437;53.686;10.030;2023-03-11T01:19:11;13.73;;;7.30;;
12745;SDS011;6437;53.686;10.030;2023-03-11T01:21:14;14.35;;;7.47;;
12745;SDS011;6437;53.686;10.030;2023-03-11T01:23:16;16.13;;;7.75;;
12745;SDS011;6437;53.686;10.030;2023-03-11T01:25:20;13.70;;;7.68;;
12745;SDS011;6437;53.686;10.030;2023-03-11T01:27:23;12.30;;;5.78;;
12745;SDS011;6437;53.686;10.030;2023-03-11T01:31:27;12.05;;;8.07;;
12745;SDS011;6437;53.686;10.030;2023-03-11T01:33:28;11.15;;;6.82;;
12745;SDS011;6437;53.686;10.030;2023-03-11T01:35:30;11.35;;;6.85;;
12745;SDS011;6437;53.686;10.030;2023-03-11T01:37:35;14.18;;;6.90;;
12745;SDS011;6437;53.686;10.030;2023-03-11T01:39:37;12.50;;;7.18;;
12745;SDS011;6437;53.686;10.030;2023-03-11T01:41:39;12.43;;;6.68;;
12745;SDS011;6437;53.686;10.030;2023-03-11T01:43:48;10.85;;;6.65;;
12745;SDS011;6437;53.686;10.030;2023-03-11T01:46:07;13.05;;;7.30;;
12745;SDS011;6437;53.686;10.030;2023-03-11T01:48:12;14.43;;;6.80;;
12745;SDS011;6437;53.686;10.030;2023-03-11T01:50:14;12.90;;;6.55;;
12745;SDS011;6437;53.686;10.030;2023-03-11T01:52:16;11.90;;;7.32;;
12745;SDS011;6437;53.686;10.030;2023-03-11T01:54:20;12.05;;;7.72;;
12745;SDS011;6437;53.686;10.030;2023-03-11T01:56:25;16.40;;;7.13;;
12745;SDS011;6437;53.686;10.030;2023-03-11T01:58:30;13.15;;;8.05;;
12745;SDS011;6437;53.686;10.030;2023-03-11T02:00:34;12.20;;;7.65;;
12745;SDS011;6437;53.686;10.030;2023-03-11T02:02:39;12.60;;;7.28;;
12745;SDS011;6437;53.686;10.030;2023-03-11T02:04:43;13.15;;;6.32;;
12745;SDS011;6437;53.686;10.030;2023-03-11T02:06:45;10.30;;;6.78;;
12745;SDS011;6437;53.686;10.030;2023-03-11T02:08:48;9.00;;;6.28;;
12745;SDS011;6437;53.686;10.030;2023-03-11T02:10:52;14.05;;;7.05;;
12745;SDS011;6437;53.686;10.030;2023-03-11T02:12:55;20.33;;;7.82;;
12745;SDS011;6437;53.686;10.030;2023-03-11T02:14:57;10.25;;;5.70;;
12745;SDS011;6437;53.686;10.030;2023-03-11T02:16:59;13.32;;;8.00;;
12745;SDS011;6437;53.686;10.030;2023-03-11T02:19:03;18.13;;;8.27;;
12745;SDS011;6437;53.686;10.030;2023-03-11T02:21:20;15.52;;;7.93;;
12745;SDS011;6437;53.686;10.030;2023-03-11T02:23:25;12.95;;;6.50;;
12745;SDS011;6437;53.686;10.030;2023-03-11T02:25:35;15.38;;;7.05;;
12745;SDS011;6437;53.686;10.030;2023-03-11T02:27:44;10.02;;;6.50;;
12745;SDS011;6437;53.686;10.030;2023-03-11T02:29:48;15.50;;;7.10;;
12745;SDS011;6437;53.686;10.030;2023-03-11T02:31:53;11.65;;;6.80;;
12745;SDS011;6437;53.686;10.030;2023-03-11T02:33:56;16.23;;;7.35;;
12745;SDS011;6437;53.686;10.030;2023-03-11T02:36:01;14.32;;;7.60;;
12745;SDS011;6437;53.686;10.030;2023-03-11T02:38:04;9.82;;;6.07;;
12745;SDS011;6437;53.686;10.030;2023-03-11T02:40:30;13.00;;;6.68;;
12745;SDS011;6437;53.686;10.030;2023-03-11T02:42:36;17.40;;;7.82;;
12745;SDS011;6437;53.686;10.030;2023-03-11T02:44:40;18.40;;;6.40;;
12745;SDS011;6437;53.686;10.030;2023-03-11T02:46:44;11.88;;;6.18;;
12745;SDS011;6437;53.686;10.030;2023-03-11T02:50:48;9.63;;;6.38;;
12745;SDS011;6437;53.686;10.030;2023-03-11T02:52:51;10.00;;;6.40;;
12745;SDS011;6437;53.686;10.030;2023-03-11T02:54:53;11.65;;;6.40;;
12745;SDS011;6437;53.686;10.030;2023-03-11T02:58:56;13.27;;;5.43;;
12745;SDS011;6437;53.686;10.030;2023-03-11T03:00:59;9.23;;;5.15;;
12745;SDS011;6437;53.686;10.030;2023-03-11T03:03:02;9.80;;;4.93;;
12745;SDS011;6437;53.686;10.030;2023-03-11T03:05:04;9.20;;;5.75;;
12745;SDS011;6437;53.686;10.030;2023-03-11T03:07:07;9.75;;;5.35;;
12745;SDS011;6437;53.686;10.030;2023-03-11T03:11:10;9.65;;;4.03;;
12745;SDS011;6437;53.686;10.030;2023-03-11T03:13:12;9.18;;;5.25;;
12745;SDS011;6437;53.686;10.030;2023-03-11T03:15:14;13.32;;;5.55;;
12745;SDS011;6437;53.686;10.030;2023-03-11T03:17:17;13.70;;;4.22;;
12745;SDS011;6437;53.686;10.030;2023-03-11T03:19:19;12.98;;;4.05;;
12745;SDS011;6437;53.686;10.030;2023-03-11T03:21:21;7.07;;;4.38;;
12745;SDS011;6437;53.686;10.030;2023-03-11T03:23:22;11.95;;;4.45;;
12745;SDS011;6437;53.686;10.030;2023-03-11T03:25:24;8.73;;;4.65;;
12745;SDS011;6437;53.686;10.030;2023-03-11T03:27:26;7.35;;;4.03;;
12745;SDS011;6437;53.686;10.030;2023-03-11T03:29:28;9.77;;;4.93;;
12745;SDS011;6437;53.686;10.030;2023-03-11T03:31:30;10.48;;;4.60;;
12745;SDS011;6437;53.686;10.030;2023-03-11T03:33:33;9.73;;;4.65;;
12745;SDS011;6437;53.686;10.030;2023-03-11T03:35:35;9.95;;;5.13;;
12745;SDS011;6437;53.686;10.030;2023-03-11T03:37:41;8.50;;;4.65;;
12745;SDS011;6437;53.686;10.030;2023-03-11T03:39:43;9.38;;;5.13;;
12745;SDS011;6437;53.686;10.030;2023-03-11T03:41:45;8.10;;;4.55;;
12745;SDS011;6437;53.686;10.030;2023-03-11T03:43:46;9.45;;;4.82;;
12745;SDS011;6437;53.686;10.030;2023-03-11T03:45:55;9.18;;;4.65;;
12745;SDS011;6437;53.686;10.030;2023-03-11T03:47:57;11.88;;;6.43;;
12745;SDS011;6437;53.686;10.030;2023-03-11T03:50:00;9.43;;;4.97;;
12745;SDS011;6437;53.686;10.030;2023-03-11T03:52:03;7.40;;;4.47;;
12745;SDS011;6437;53.686;10.030;2023-03-11T03:54:05;10.25;;;4.72;;
12745;SDS011;6437;53.686;10.030;2023-03-11T03:56:08;11.52;;;6.40;;
12745;SDS011;6437;53.686;10.030;2023-03-11T03:58:11;9.20;;;5.47;;
12745;SDS011;6437;53.686;10.030;2023-03-11T04:00:13;8.02;;;4.50;;
12745;SDS011;6437;53.686;10.030;2023-03-11T04:02:15;12.45;;;6.10;;
12745;SDS011;6437;53.686;10.030;2023-03-11T04:04:17;9.68;;;5.85;;
12745;SDS011;6437;53.686;10.030;2023-03-11T04:06:21;9.38;;;5.30;;
12745;SDS011;6437;53.686;10.030;2023-03-11T04:08:24;10.23;;;6.05;;
12745;SDS011;6437;53.686;10.030;2023-03-11T04:10:26;14.82;;;7.22;;
12745;SDS011;6437;53.686;10.030;2023-03-11T04:12:28;13.55;;;5.97;;
12745;SDS011;6437;53.686;10.030;2023-03-11T04:14:29;9.32;;;5.10;;
12745;SDS011;6437;53.686;10.030;2023-03-11T04:16:31;10.35;;;4.65;;
12745;SDS011;6437;53.686;10.030;2023-03-11T04:18:33;7.60;;;4.25;;
12745;SDS011;6437;53.686;10.030;2023-03-11T04:20:37;8.70;;;4.68;;
12745;SDS011;6437;53.686;10.030;2023-03-11T04:22:40;8.95;;;5.22;;
12745;SDS011;6437;53.686;10.030;2023-03-11T04:24:42;11.90;;;4.85;;
12745;SDS011;6437;53.686;10.030;2023-03-11T04:26:43;7.45;;;4.45;;
12745;SDS011;6437;53.686;10.030;2023-03-11T04:28:45;9.38;;;4.65;;
12745;SDS011;6437;53.686;10.030;2023-03-11T04:30:47;12.55;;;6.32;;
12745;SDS011;6437;53.686;10.030;2023-03-11T04:32:49;9.80;;;5.15;;
12745;SDS011;6437;53.686;10.030;2023-03-11T04:34:50;9.52;;;5.15;;
12745;SDS011;6437;53.686;10.030;2023-03-11T04:36:52;11.90;;;5.05;;
12745;SDS011;6437;53.686;10.030;2023-03-11T04:38:56;8.15;;;5.03;;
12745;SDS011;6437;53.686;10.030;2023-03-11T04:40:58;8.27;;;4.80;;
12745;SDS011;6437;53.686;10.030;2023-03-11T04:43:01;10.63;;;5.15;;
12745;SDS011;6437;53.686;10.030;2023-03-11T04:45:03;12.27;;;5.65;;
12745;SDS011;6437;53.686;10.030;2023-03-11T04:47:05;13.45;;;4.85;;
12745;SDS011;6437;53.686;10.030;2023-03-11T04:49:07;10.15;;;5.07;;
12745;SDS011;6437;53.686;10.030;2023-03-11T04:53:10;7.40;;;4.60;;
12745;SDS011;6437;53.686;10.030;2023-03-11T04:55:14;11.15;;;5.35;;
12745;SDS011;6437;53.686;10.030;2023-03-11T04:57:16;9.45;;;4.45;;
12745;SDS011;6437;53.686;10.030;2023-03-11T04:59:18;12.65;;;5.60;;
12745;SDS011;6437;53.686;10.030;2023-03-11T05:01:19;9.93;;;4.30;;
12745;SDS011;6437;53.686;10.030;2023-03-11T05:03:21;15.30;;;5.18;;
12745;SDS011;6437;53.686;10.030;2023-03-11T05:05:23;14.35;;;4.65;;
12745;SDS011;6437;53.686;10.030;2023-03-11T05:07:25;7.93;;;4.35;;
12745;SDS011;6437;53.686;10.030;2023-03-11T05:09:26;8.25;;;5.05;;
12745;SDS011;6437;53.686;10.030;2023-03-11T05:11:29;8.50;;;4.45;;
12745;SDS011;6437;53.686;10.030;2023-03-11T05:13:31;9.60;;;5.70;;
12745;SDS011;6437;53.686;10.030;2023-03-11T05:15:33;17.88;;;6.07;;
12745;SDS011;6437;53.686;10.030;2023-03-11T05:19:37;12.48;;;5.22;;
12745;SDS011;6437;53.686;10.030;2023-03-11T05:23:41;14.05;;;5.47;;
12745;SDS011;6437;53.686;10.030;2023-03-11T05:25:44;8.68;;;4.97;;
12745;SDS011;6437;53.686;10.030;2023-03-11T05:27:47;8.65;;;4.95;;
12745;SDS011;6437;53.686;10.030;2023-03-11T05:29:49;11.57;;;6.22;;
12745;SDS011;6437;53.686;10.030;2023-03-11T05:31:50;10.48;;;5.45;;
12745;SDS011;6437;53.686;10.030;2023-03-11T05:33:52;11.15;;;6.18;;
12745;SDS011;6437;53.686;10.030;2023-03-11T05:35:54;12.57;;;5.72;;
12745;SDS011;6437;53.686;10.030;2023-03-11T05:37:56;10.88;;;6.32;;
12745;SDS011;6437;53.686;10.030;2023-03-11T05:39:57;11.30;;;5.05;;
12745;SDS011;6437;53.686;10.030;2023-03-11T05:41:59;19.10;;;6.25;;
12745;SDS011;6437;53.686;10.030;2023-03-11T05:44:02;10.77;;;4.65;;
12745;SDS011;6437;53.686;10.030;2023-03-11T05:46:04;13.40;;;4.88;;
12745;SDS011;6437;53.686;10.030;2023-03-11T05:48:06;13.10;;;5.78;;
12745;SDS011;6437;53.686;10.030;2023-03-11T05:50:08;10.30;;;5.88;;
12745;SDS011;6437;53.686;10.030;2023-03-11T05:52:11;7.35;;;4.10;;
12745;SDS011;6437;53.686;10.030;2023-03-11T05:54:14;14.23;;;5.05;;
12745;SDS011;6437;53.686;10.030;2023-03-11T05:56:16;10.05;;;5.45;;
12745;SDS011;6437;53.686;10.030;2023-03-11T05:58:19;10.05;;;5.43;;
12745;SDS011;6437;53.686;10.030;2023-03-11T06:00:22;9.98;;;5.47;;
12745;SDS011;6437;53.686;10.030;2023-03-11T06:02:24;8.50;;;4.93;;
12745;SDS011;6437;53.686;10.030;2023-03-11T06:04:26;7.35;;;4.82;;
12745;SDS011;6437;53.686;10.030;2023-03-11T06:06:28;9.30;;;4.20;;
12745;SDS011;6437;53.686;10.030;2023-03-11T06:08:30;8.43;;;4.10;;
12745;SDS011;6437;53.686;10.030;2023-03-11T06:10:33;9.00;;;4.43;;
12745;SDS011;6437;53.686;10.030;2023-03-11T06:12:35;11.70;;;5.30;;
12745;SDS011;6437;53.686;10.030;2023-03-11T06:14:37;8.52;;;4.47;;
12745;SDS011;6437;53.686;10.030;2023-03-11T06:16:40;9.95;;;5.10;;
12745;SDS011;6437;53.686;10.030;2023-03-11T06:18:42;9.27;;;4.32;;
12745;SDS011;6437;53.686;10.030;2023-03-11T06:20:44;14.35;;;5.18;;
12745;SDS011;6437;53.686;10.030;2023-03-11T06:22:47;11.02;;;4.63;;
12745;SDS011;6437;53.686;10.030;2023-03-11T06:24:49;9.55;;;4.88;;
12745;SDS011;6437;53.686;10.030;2023-03-11T06:26:50;8.25;;;4.10;;
12745;SDS011;6437;53.686;10.030;2023-03-11T06:30:54;9.10;;;4.50;;
12745;SDS011;6437;53.686;10.030;2023-03-11T06:32:57;13.27;;;6.30;;
12745;SDS011;6437;53.686;10.030;2023-03-11T06:34:59;11.43;;;4.35;;
12745;SDS011;6437;53.686;10.030;2023-03-11T06:37:01;10.13;;;4.25;;
12745;SDS011;6437;53.686;10.030;2023-03-11T06:39:03;11.70;;;5.38;;
12745;SDS011;6437;53.686;10.030;2023-03-11T06:41:05;8.82;;;4.55;;
12745;SDS011;6437;53.686;10.030;2023-03-11T06:43:07;7.88;;;5.13;;
12745;SDS011;6437;53.686;10.030;2023-03-11T06:45:09;12.55;;;6.32;;
12745;SDS011;6437;53.686;10.030;2023-03-11T06:47:11;13.48;;;5.68;;
12745;SDS011;6437;53.686;10.030;2023-03-11T06:49:14;9.63;;;4.70;;
12745;SDS011;6437;53.686;10.030;2023-03-11T06:51:16;11.27;;;4.93;;
12745;SDS011;6437;53.686;10.030;2023-03-11T06:53:18;8.88;;;3.95;;
12745;SDS011;6437;53.686;10.030;2023-03-11T06:55:20;8.48;;;4.90;;
12745;SDS011;6437;53.686;10.030;2023-03-11T06:57:22;11.85;;;5.10;;
12745;SDS011;6437;53.686;10.030;2023-03-11T06:59:24;8.00;;;3.88;;
12745;SDS011;6437;53.686;10.030;2023-03-11T07:01:27;10.05;;;5.63;;
12745;SDS011;6437;53.686;10.030;2023-03-11T07:03:29;12.27;;;4.70;;
12745;SDS011;6437;53.686;10.030;2023-03-11T07:05:32;16.00;;;5.65;;
12745;SDS011;6437;53.686;10.030;2023-03-11T07:07:33;15.63;;;5.18;;
12745;SDS011;6437;53.686;10.030;2023-03-11T07:09:35;11.25;;;4.57;;
12745;SDS011;6437;53.686;10.030;2023-03-11T07:11:37;9.00;;;4.32;;
12745;SDS011;6437;53.686;10.030;2023-03-11T07:13:39;12.45;;;6.28;;
12745;SDS011;6437;53.686;10.030;2023-03-11T07:15:40;10.45;;;6.32;;
12745;SDS011;6437;53.686;10.030;2023-03-11T07:17:42;9.57;;;4.43;;
12745;SDS011;6437;53.686;10.030;2023-03-11T07:19:44;12.90;;;5.97;;
12745;SDS011;6437;53.686;10.030;2023-03-11T07:21:47;10.70;;;5.68;;
12745;SDS011;6437;53.686;10.030;2023-03-11T07:23:50;15.98;;;5.47;;
12745;SDS011;6437;53.686;10.030;2023-03-11T07:25:53;7.43;;;4.20;;
12745;SDS011;6437;53.686;10.030;2023-03-11T07:27:55;7.45;;;4.28;;
12745;SDS011;6437;53.686;10.030;2023-03-11T07:29:57;11.05;;;5.50;;
12745;SDS011;6437;53.686;10.030;2023-03-11T07:32:00;9.85;;;5.53;;
12745;SDS011;6437;53.686;10.030;2023-03-11T07:34:02;12.82;;;4.05;;
12745;SDS011;6437;53.686;10.030;2023-03-11T07:36:05;12.20;;;4.97;;
12745;SDS011;6437;53.686;10.030;2023-03-11T07:38:10;11.10;;;5.90;;
12745;SDS011;6437;53.686;10.030;2023-03-11T07:40:12;12.93;;;4.95;;
12745;SDS011;6437;53.686;10.030;2023-03-11T07:42:15;11.13;;;4.57;;
12745;SDS011;6437;53.686;10.030;2023-03-11T07:44:17;10.10;;;4.55;;
12745;SDS011;6437;53.686;10.030;2023-03-11T07:46:19;9.35;;;5.35;;
12745;SDS011;6437;53.686;10.030;2023-03-11T07:48:21;10.05;;;4.75;;
12745;SDS011;6437;53.686;10.030;2023-03-11T07:50:23;10.18;;;5.07;;
12745;SDS011;6437;53.686;10.030;2023-03-11T07:52:25;14.25;;;4.00;;
12745;SDS011;6437;53.686;10.030;2023-03-11T07:54:32;12.27;;;5.13;;
12745;SDS011;6437;53.686;10.030;2023-03-11T07:56:33;9.32;;;4.55;;
12745;SDS011;6437;53.686;10.030;2023-03-11T07:58:35;9.52;;;5.47;;
12745;SDS011;6437;53.686;10.030;2023-03-11T08:02:39;12.60;;;5.05;;
12745;SDS011;6437;53.686;10.030;2023-03-11T08:04:41;9.30;;;5.13;;
12745;SDS011;6437;53.686;10.030;2023-03-11T08:06:43;9.82;;;5.30;;
12745;SDS011;6437;53.686;10.030;2023-03-11T08:08:46;13.00;;;5.68;;
12745;SDS011;6437;53.686;10.030;2023-03-11T08:10:50;13.70;;;5.60;;
12745;SDS011;6437;53.686;10.030;2023-03-11T08:12:52;11.15;;;4.30;;
12745;SDS011;6437;53.686;10.030;2023-03-11T08:14:54;13.35;;;4.00;;
12745;SDS011;6437;53.686;10.030;2023-03-11T08:16:56;10.07;;;4.50;;
12745;SDS011;6437;53.686;10.030;2023-03-11T08:18:58;14.27;;;4.85;;
12745;SDS011;6437;53.686;10.030;2023-03-11T08:21:02;13.95;;;4.20;;
12745;SDS011;6437;53.686;10.030;2023-03-11T08:23:05;7.85;;;3.72;;
12745;SDS011;6437;53.686;10.030;2023-03-11T08:25:07;10.43;;;4.18;;
12745;SDS011;6437;53.686;10.030;2023-03-11T08:27:10;9.25;;;4.55;;
12745;SDS011;6437;53.686;10.030;2023-03-11T08:29:12;7.75;;;4.03;;
12745;SDS011;6437;53.686;10.030;2023-03-11T08:31:14;7.63;;;3.42;;
12745;SDS011;6437;53.686;10.030;2023-03-11T08:33:17;11.27;;;4.47;;
12745;SDS011;6437;53.686;10.030;2023-03-11T08:35:18;11.57;;;4.72;;
12745;SDS011;6437;53.686;10.030;2023-03-11T08:37:20;11.18;;;3.67;;
12745;SDS011;6437;53.686;10.030;2023-03-11T08:39:22;13.20;;;4.90;;
12745;SDS011;6437;53.686;10.030;2023-03-11T08:41:24;7.68;;;4.32;;
12745;SDS011;6437;53.686;10.030;2023-03-11T08:43:28;12.95;;;4.75;;
12745;SDS011;6437;53.686;10.030;2023-03-11T08:45:30;12.93;;;4.15;;
12745;SDS011;6437;53.686;10.030;2023-03-11T08:47:32;10.88;;;3.92;;
12745;SDS011;6437;53.686;10.030;2023-03-11T08:49:34;9.52;;;3.45;;
12745;SDS011;6437;53.686;10.030;2023-03-11T08:51:37;11.43;;;4.03;;
12745;SDS011;6437;53.686;10.030;2023-03-11T08:53:39;9.90;;;3.20;;
12745;SDS011;6437;53.686;10.030;2023-03-11T08:55:41;6.50;;;3.70;;
12745;SDS011;6437;53.686;10.030;2023-03-11T08:57:43;7.13;;;3.53;;
12745;SDS011;6437;53.686;10.030;2023-03-11T08:59:46;13.38;;;3.10;;
12745;SDS011;6437;53.686;10.030;2023-03-11T09:01:48;8.52;;;2.97;;
12745;SDS011;6437;53.686;10.030;2023-03-11T09:03:50;11.55;;;3.20;;
12745;SDS011;6437;53.686;10.030;2023-03-11T09:05:55;7.55;;;2.40;;
12745;SDS011;6437;53.686;10.030;2023-03-11T09:07:57;11.15;;;3.35;;
12745;SDS011;6437;53.686;10.030;2023-03-11T09:09:59;6.72;;;3.25;;
12745;SDS011;6437;53.686;10.030;2023-03-11T09:12:01;8.23;;;2.13;;
12745;SDS011;6437;53.686;10.030;2023-03-11T09:16:07;9.85;;;1.88;;
12745;SDS011;6437;53.686;10.030;2023-03-11T09:18:10;14.70;;;1.83;;
12745;SDS011;6437;53.686;10.030;2023-03-11T09:20:13;13.77;;;2.47;;
12745;SDS011;6437;53.686;10.030;2023-03-11T09:22:15;5.90;;;2.13;;
12745;SDS011;6437;53.686;10.030;2023-03-11T09:26:19;7.32;;;2.42;;
12745;SDS011;6437;53.686;10.030;2023-03-11T09:28:22;16.33;;;2.63;;
12745;SDS011;6437;53.686;10.030;2023-03-11T09:30:23;6.70;;;2.33;;
12745;SDS011;6437;53.686;10.030;2023-03-11T09:32:27;10.57;;;2.17;;
12745;SDS011;6437;53.686;10.030;2023-03-11T09:34:29;7.57;;;1.52;;
12745;SDS011;6437;53.686;10.030;2023-03-11T09:36:30;8.23;;;1.13;;
12745;SDS011;6437;53.686;10.030;2023-03-11T09:38:32;7.53;;;1.52;;
12745;SDS011;6437;53.686;10.030;2023-03-11T09:40:38;7.93;;;2.33;;
12745;SDS011;6437;53.686;10.030;2023-03-11T09:42:52;4.15;;;1.45;;
12745;SDS011;6437;53.686;10.030;2023-03-11T09:45:08;6.20;;;1.30;;
12745;SDS011;6437;53.686;10.030;2023-03-11T09:47:23;7.90;;;1.52;;
12745;SDS011;6437;53.686;10.030;2023-03-11T09:49:55;13.93;;;2.05;;
12745;SDS011;6437;53.686;10.030;2023-03-11T09:52:08;6.43;;;1.60;;
12745;SDS011;6437;53.686;10.030;2023-03-11T09:54:11;7.07;;;1.45;;
12745;SDS011;6437;53.686;10.030;2023-03-11T10:00:22;10.55;;;1.00;;
12745;SDS011;6437;53.686;10.030;2023-03-11T10:02:24;7.97;;;1.45;;
12745;SDS011;6437;53.686;10.030;2023-03-11T10:04:29;10.50;;;1.73;;
12745;SDS011;6437;53.686;10.030;2023-03-11T10:06:34;7.85;;;1.38;;
12745;SDS011;6437;53.686;10.030;2023-03-11T10:08:37;8.68;;;1.23;;
12745;SDS011;6437;53.686;10.030;2023-03-11T10:10:44;3.92;;;1.23;;
12745;SDS011;6437;53.686;10.030;2023-03-11T10:12:53;10.50;;;1.42;;
12745;SDS011;6437;53.686;10.030;2023-03-11T10:15:08;10.10;;;1.40;;
12745;SDS011;6437;53.686;10.030;2023-03-11T10:17:19;8.05;;;1.50;;
12745;SDS011;6437;53.686;10.030;2023-03-11T10:19:38;6.63;;;1.73;;
12745;SDS011;6437;53.686;10.030;2023-03-11T10:21:48;11.05;;;0.98;;
12745;SDS011;6437;53.686;10.030;2023-03-11T10:24:00;5.88;;;1.35;;
12745;SDS011;6437;53.686;10.030;2023-03-11T10:26:14;7.57;;;1.27;;
12745;SDS011;6437;53.686;10.030;2023-03-11T10:28:21;13.27;;;0.80;;
12745;SDS011;6437;53.686;10.030;2023-03-11T10:30:27;10.40;;;0.80;;
12745;SDS011;6437;53.686;10.030;2023-03-11T10:32:34;11.77;;;1.65;;
12745;SDS011;6437;53.686;10.030;2023-03-11T10:34:43;16.48;;;1.23;;
12745;SDS011;6437;53.686;10.030;2023-03-11T10:36:52;8.20;;;1.15;;
12745;SDS011;6437;53.686;10.030;2023-03-11T10:38:59;9.73;;;2.05;;
12745;SDS011;6437;53.686;10.030;2023-03-11T10:41:04;8.00;;;1.20;;
12745;SDS011;6437;53.686;10.030;2023-03-11T10:43:16;13.52;;;1.23;;
12745;SDS011;6437;53.686;10.030;2023-03-11T10:45:19;5.15;;;1.40;;
12745;SDS011;6437;53.686;10.030;2023-03-11T10:47:23;9.73;;;1.52;;
12745;SDS011;6437;53.686;10.030;2023-03-11T10:49:27;8.18;;;1.10;;
12745;SDS011;6437;53.686;10.030;2023-03-11T10:51:32;4.00;;;1.10;;
12745;SDS011;6437;53.686;10.030;2023-03-11T10:53:38;12.75;;;1.85;;
12745;SDS011;6437;53.686;10.030;2023-03-11T10:55:47;3.55;;;0.90;;
12745;SDS011;6437;53.686;10.030;2023-03-11T10:57:49;7.55;;;2.33;;
12745;SDS011;6437;53.686;10.030;2023-03-11T10:59:53;6.32;;;0.75;;
12745;SDS011;6437;53.686;10.030;2023-03-11T11:01:59;6.03;;;0.90;;
12745;SDS011;6437;53.686;10.030;2023-03-11T11:04:22;9.70;;;0.85;;
12745;SDS011;6437;53.686;10.030;2023-03-11T11:06:29;9.20;;;1.15;;
12745;SDS011;6437;53.686;10.030;2023-03-11T11:08:34;7.05;;;0.75;;
12745;SDS011;6437;53.686;10.030;2023-03-11T11:10:36;7.68;;;1.08;;
12745;SDS011;6437;53.686;10.030;2023-03-11T11:12:52;7.30;;;1.20;;
12745;SDS011;6437;53.686;10.030;2023-03-11T11:14:55;4.47;;;0.45;;
12745;SDS011;6437;53.686;10.030;2023-03-11T11:16:58;9.10;;;1.00;;
12745;SDS011;6437;53.686;10.030;2023-03-11T11:19:01;8.40;;;0.98;;
12745;SDS011;6437;53.686;10.030;2023-03-11T11:21:05;9.70;;;1.05;;
12745;SDS011;6437;53.686;10.030;2023-03-11T11:23:10;4.72;;;0.50;;
12745;SDS011;6437;53.686;10.030;2023-03-11T11:25:27;5.15;;;0.80;;
12745;SDS011;6437;53.686;10.030;2023-03-11T11:27:31;12.23;;;1.38;;
12745;SDS011;6437;53.686;10.030;2023-03-11T11:29:33;12.45;;;1.42;;
12745;SDS011;6437;53.686;10.030;2023-03-11T11:31:35;6.60;;;0.77;;
12745;SDS011;6437;53.686;10.030;2023-03-11T11:33:39;5.90;;;0.77;;
12745;SDS011;6437;53.686;10.030;2023-03-11T11:35:49;4.50;;;0.60;;
12745;SDS011;6437;53.686;10.030;2023-03-11T11:37:54;9.52;;;0.68;;
12745;SDS011;6437;53.686;10.030;2023-03-11T11:40:04;11.48;;;0.50;;
12745;SDS011;6437;53.686;10.030;2023-03-11T11:42:10;13.40;;;0.85;;
12745;SDS011;6437;53.686;10.030;2023-03-11T11:44:14;10.25;;;0.63;;
12745;SDS011;6437;53.686;10.030;2023-03-11T11:46:22;12.13;;;0.55;;
12745;SDS011;6437;53.686;10.030;2023-03-11T11:48:31;11.82;;;0.70;;
12745;SDS011;6437;53.686;10.030;2023-03-11T11:50:40;8.60;;;0.60;;
12745;SDS011;6437;53.686;10.030;2023-03-11T11:52:46;11.38;;;0.50;;
12745;SDS011;6437;53.686;10.030;2023-03-11T11:54:53;6.95;;;1.38;;
12745;SDS011;6437;53.686;10.030;2023-03-11T11:57:00;8.55;;;0.68;;
12745;SDS011;6437;53.686;10.030;2023-03-11T11:59:12;4.30;;;0.40;;
12745;SDS011;6437;53.686;10.030;2023-03-11T12:01:18;6.20;;;0.70;;
12745;SDS011;6437;53.686;10.030;2023-03-11T12:03:36;5.18;;;0.60;;
12745;SDS011;6437;53.686;10.030;2023-03-11T12:05:44;8.95;;;0.30;;
12745;SDS011;6437;53.686;10.030;2023-03-11T12:07:57;17.40;;;1.17;;
12745;SDS011;6437;53.686;10.030;2023-03-11T12:10:13;8.20;;;0.30;;
12745;SDS011;6437;53.686;10.030;2023-03-11T12:12:24;13.65;;;0.93;;
12745;SDS011;6437;53.686;10.030;2023-03-11T12:14:33;7.03;;;0.85;;
12745;SDS011;6437;53.686;10.030;2023-03-11T12:16:40;9.18;;;0.40;;
12745;SDS011;6437;53.686;10.030;2023-03-11T12:18:48;4.40;;;0.50;;
12745;SDS011;6437;53.686;10.030;2023-03-11T12:20:56;11.15;;;1.20;;
12745;SDS011;6437;53.686;10.030;2023-03-11T12:23:02;8.70;;;0.82;;
12745;SDS011;6437;53.686;10.030;2023-03-11T12:25:20;11.55;;;0.50;;
12745;SDS011;6437;53.686;10.030;2023-03-11T12:27:29;8.25;;;0.40;;
12745;SDS011;6437;53.686;10.030;2023-03-11T12:29:35;10.18;;;0.30;;
12745;SDS011;6437;53.686;10.030;2023-03-11T12:31:43;4.30;;;0.45;;
12745;SDS011;6437;53.686;10.030;2023-03-11T12:33:46;13.95;;;0.40;;
12745;SDS011;6437;53.686;10.030;2023-03-11T12:35:51;9.18;;;0.68;;
12745;SDS011;6437;53.686;10.030;2023-03-11T12:37:55;3.88;;;0.35;;
12745;SDS011;6437;53.686;10.030;2023-03-11T12:42:55;6.03;;;0.40;;
12745;SDS011;6437;53.686;10.030;2023-03-11T12:44:58;11.35;;;1.42;;
12745;SDS011;6437;53.686;10.030;2023-03-11T12:47:51;4.78;;;0.22;;
12745;SDS011;6437;53.686;10.030;2023-03-11T12:50:38;7.97;;;0.20;;
12745;SDS011;6437;53.686;10.030;2023-03-11T12:52:52;8.43;;;0.40;;
12745;SDS011;6437;53.686;10.030;2023-03-11T12:57:30;7.65;;;0.70;;